WetterOnline ( https://www.wetteronline.de )

Wetter aktuell Ulm

Aktuelles Wetter: Ulm-Mähringen (592m)

6-stündlich | Neueste Meldungen
Ortszeit Temperatur Wetter
Mo, 06.07. 20:00 16.3° C wolkenlos
Mo, 06.07. 14:00 19.3° C wolkenlos
Mo, 06.07. 8:00 15.1° C Sprühregen
Mo, 06.07. 2:00 18.0° C wolkenlos
So, 05.07. 20:00 25.1° C wolkenlos
So, 05.07. 14:00 24.2° C bewölkt
So, 05.07. 8:00 16.5° C bedeckt
So, 05.07. 2:00 16.8° C bedeckt
Ortszeit Temperatur Wetter
Mo, 06.07. 20:00 16.3° C wolkenlos
Mo, 06.07. 19:50 16.3° C wolkenlos
Mo, 06.07. 19:40 16.5° C wolkenlos
Mo, 06.07. 19:30 16.7° C wolkenlos
Mo, 06.07. 19:20 16.7° C wolkenlos
Mo, 06.07. 19:10 16.8° C leicht bewölkt
Mo, 06.07. 19:00 16.8° C bewölkt
Mo, 06.07. 18:30 17.0° C wolkig
Mo, 06.07. 18:00 17.3° C leicht bewölkt
Mo, 06.07. 17:30 18.2° C fast wolkenlos
Mo, 06.07. 17:00 18.6° C wolkenlos
Mo, 06.07. 16:30 18.6° C wolkenlos
Ortszeit Relative Feuchte Sichtweite
Mo, 06.07. 20:00 41% 40 km
Mo, 06.07. 14:00 39% 40 km
Mo, 06.07. 8:00 88% 24 km
Mo, 06.07. 2:00 74% 70 km
So, 05.07. 20:00 55% 70 km
So, 05.07. 14:00 57% 70 km
So, 05.07. 8:00 70% 70 km
So, 05.07. 2:00 69% 70 km
Ortszeit Relative Feuchte Sichtweite
Mo, 06.07. 20:00 41% 40 km
Mo, 06.07. 19:50 41% -
Mo, 06.07. 19:40 40% -
Mo, 06.07. 19:30 41% 40 km
Mo, 06.07. 19:20 41% -
Mo, 06.07. 19:10 42% -
Mo, 06.07. 19:00 43% 40 km
Mo, 06.07. 18:30 46% 45 km
Mo, 06.07. 18:00 45% 65 km
Mo, 06.07. 17:30 44% 35 km
Mo, 06.07. 17:00 45% 45 km
Mo, 06.07. 16:30 44% 45 km
Ortszeit Niederschlagsmenge Niederschlagsart
Mo, 06.07. 20:00 0.5 l/m2 in 12 Std. -
Mo, 06.07. 14:00 0.5 l/m2 in 6 Std. Regen
Mo, 06.07. 8:00 0.2 l/m2 in 12 Std. Regen
Mo, 06.07. 2:00 0.0 l/m2 in 6 Std. -
So, 05.07. 20:00 0.0 l/m2 in 12 Std. -
So, 05.07. 14:00 0.0 l/m2 in 6 Std. -
So, 05.07. 8:00 0.0 l/m2 in 12 Std. -
So, 05.07. 2:00 0.0 l/m2 in 6 Std. -
Ortszeit Niederschlagsmenge Niederschlagsart
Mo, 06.07. 20:00 0.0 l/m2 in 1 Std. -
Mo, 06.07. 19:50 keine Meldung -
Mo, 06.07. 19:40 keine Meldung -
Mo, 06.07. 19:30 0.0 l/m2 in 1 Std. -
Mo, 06.07. 19:20 keine Meldung -
Mo, 06.07. 19:10 keine Meldung -
Mo, 06.07. 19:00 0.0 l/m2 in 1 Std. -
Mo, 06.07. 18:30 0.0 l/m2 in 1 Std. -
Mo, 06.07. 18:00 0.0 l/m2 in 1 Std. -
Mo, 06.07. 17:30 0.0 l/m2 in 1 Std. -
Mo, 06.07. 17:00 0.0 l/m2 in 1 Std. -
Mo, 06.07. 16:30 0.0 l/m2 in 1 Std. -
Ortszeit Stärke Spitze Richtung
km/h Bft. km/h Grad Sektor
Mo, 06.07. 20:00 18 3 43 290° W
Mo, 06.07. 14:00 14 3 43 300° NW
Mo, 06.07. 8:00 20 4 35 310° NW
Mo, 06.07. 2:00 11 2 18 250° W
So, 05.07. 20:00 9 2 31 270° W
So, 05.07. 14:00 14 3 29 260° W
So, 05.07. 8:00 7 2 25 220° SW
So, 05.07. 2:00 4 1 22 270° W
Ortszeit Stärke Spitze Richtung
km/h Bft. km/h Grad Sektor
Mo, 06.07. 20:00 18 3 43 290° W
Mo, 06.07. 19:50 18 3 - 290° W
Mo, 06.07. 19:40 15 3 - 300° NW
Mo, 06.07. 19:30 17 3 41 310° NW
Mo, 06.07. 19:20 17 3 - 310° NW
Mo, 06.07. 19:10 20 4 - 300° NW
Mo, 06.07. 19:00 22 4 40 310° NW
Mo, 06.07. 18:30 22 4 40 310° NW
Mo, 06.07. 18:00 22 4 40 310° NW
Mo, 06.07. 17:30 20 4 39 310° NW
Mo, 06.07. 17:00 17 3 44 270° W
Mo, 06.07. 16:30 25 4 43 320° NW
Ortszeit Untergrenze Bedeckung Gattung
total tief tief mittel hoch
Mo, 06.07. 20:00 - 0/8 0/8 - - -
Mo, 06.07. 14:00 - 0/8 0/8 - - -
Mo, 06.07. 8:00 330 m 7/8 7/8 - - -
Mo, 06.07. 2:00 10500 m 0/8 0/8 - - -
So, 05.07. 20:00 - 0/8 0/8 - - -
So, 05.07. 14:00 1380 m 7/8 7/8 - - -
So, 05.07. 8:00 1500 m 8/8 8/8 - - -
So, 05.07. 2:00 1500 m 8/8 8/8 - - -
Ortszeit Bedeckungsgrad in Achtel und Wolkenuntergrenze
Mo, 06.07. 20:00 keine Wolken
Mo, 06.07. 19:50 keine Wolken
Mo, 06.07. 19:40 keine Wolken
Mo, 06.07. 19:30 keine Wolken
Mo, 06.07. 19:20 keine Wolken
Mo, 06.07. 19:10 2(1500m)
Mo, 06.07. 19:00 7(1500m)
Mo, 06.07. 18:30 5(1500m) 7(1800m)
Mo, 06.07. 18:00 3(1500m)
Mo, 06.07. 17:30 1(1500m)
Mo, 06.07. 17:00 1(1500m)
Mo, 06.07. 16:30 keine Wolken
Ortszeit Luftdruck NN (hPa) Tendenz (hPa in 3 Std.)
Mo, 06.07. 20:00 1019 + 2,0
Mo, 06.07. 14:00 1015 + 0,2
Mo, 06.07. 8:00 1015 + 0,6
Mo, 06.07. 2:00 1015 - 0,6
So, 05.07. 20:00 1013 - 0,9
So, 05.07. 14:00 1015 - 0,9
So, 05.07. 8:00 1018 - 0,3
So, 05.07. 2:00 1019 + 0,1
Ortszeit Luftdruck NN (hPa) Tendenz (hPa in 3 Std.)
Mo, 06.07. 20:00 1019 + 2,0
Mo, 06.07. 19:50 1019 keine Meldung
Mo, 06.07. 19:40 1019 keine Meldung
Mo, 06.07. 19:30 1019 + 1,9
Mo, 06.07. 19:20 1019 keine Meldung
Mo, 06.07. 19:10 1019 keine Meldung
Mo, 06.07. 19:00 1019 + 1,9
Mo, 06.07. 18:30 1018 + 1,9
Mo, 06.07. 18:00 1018 + 1,7
Mo, 06.07. 17:30 1017 + 1,4
Mo, 06.07. 17:00 1016 + 1,0
Mo, 06.07. 16:30 1016 + 1,0
Ortszeit Schneehöhe (cm)
Mo, 06.07. 20:00 -
Mo, 06.07. 14:00 -
Mo, 06.07. 8:00 -
Mo, 06.07. 2:00 -
So, 05.07. 20:00 -
So, 05.07. 14:00 -
So, 05.07. 8:00 -
So, 05.07. 2:00 -
Ortszeit Schneehöhe (cm)
Mo, 06.07. 20:00 -
Mo, 06.07. 19:50 -
Mo, 06.07. 19:40 -
Mo, 06.07. 19:30 -
Mo, 06.07. 19:20 -
Mo, 06.07. 19:10 -
Mo, 06.07. 19:00 -
Mo, 06.07. 18:30 -
Mo, 06.07. 18:00 -
Mo, 06.07. 17:30 -
Mo, 06.07. 17:00 -
Mo, 06.07. 16:30 -
Link zu dieser Seite / Seite empfehlen

Das Wetter in ...